Terminal Aerodrome Forecast
Issued by NWS

Home | Current Version | Previous Version | Text Only | Print | Product List | Glossary On
Versions: 1 2 3 4 5 6 7 8 9 10 11 12 13 14 15 16 17 18 19 20 21 22 23 24 25 26 27 28 29 30 31 32 33 34 35 36 37 38 39 40
000
FTUS42 KRAH 201114 AAA
TAFINT
TAF AMD
KINT 201114Z 2011/2106 VRB03KT 6SM BR BKN015
      TEMPO 2011/2013 3SM BR BKN002
     FM201400 02003KT P6SM SCT035 BKN150
     FM201900 VRB05KT P6SM VCSH SCT050 BKN150
     FM210000 VRB05KT P6SM SCT250=

USA.gov is the U.S. government's official web portal to all federal, state and local government web resources and services.